Monett, MO

6:31 PM CDT on July 21, 2017 (GMT -0500)
Monett

Weather History for KHFJ - April, 2014

Change the Weather History Date:

Thursday, April 10, 2014

  Actual Average (KJLN) Record (KJLN)
Temperature  
Mean Temperature 68 °F -  
Max Temperature 80 °F 68 °F 84 °F (2011)
Min Temperature 55 °F 45 °F 27 °F (1989)
Cooling Degree Days 4    
Growing Degree Days 18 (Base 50)    
Moisture  
Dew Point 45 °F    
Average Humidity 46    
Maximum Humidity 72    
Minimum Humidity 32    
Precipitation  
Precipitation 0.00 in - - ()
Sea Level Pressure  
Sea Level Pressure 29.87 in    
Wind  
Wind Speed 15 mph (SW)    
Max Wind Speed 28 mph    
Max Gust Speed 33 mph    
Visibility 10 miles    
Events      
Averages and records for this station are not official NWS values.
T = Trace of Precipitation, MM = Missing Value Source: NWS Daily Summary

Daily Weather History Graph

Daily Weather History Graph

Search for Another Location

Airport or City:

Trip Planner

Search our weather history database for the weather conditions in past years. The results will help you decide how hot, cold, wet, or windy it might be!

Date:

Astronomy

Apr. 10, 2014 Rise Set
Actual Time 6:48 AM CDT 7:46 PM CDT
Civil Twilight 6:22 AM CDT 8:12 PM CDT
Nautical Twilight 5:50 AM CDT 8:44 PM CDT
Astronomical Twilight 5:18 AM CDT 9:17 PM CDT
Moon 3:36 PM CDT (4/10) 4:05 AM CDT (4/10)
Length of Visible Light 13h 50m
Length of Day
12h 57m
Waxing Gibbous, 80% of the Moon is Illuminated
Apr 10
Waxing Gibbous
Apr 15
Full
Apr 22
Last Quarter
Apr 29
New
May 6
First Quarter

Hourly Weather History & Observations

Time (CDT) Temp. Dew Point Humidity Pressure Visibility Wind Dir Wind Speed Gust Speed Precip Events Conditions
12:15 AM 59.0 °F 35.6 °F 42% 29.92 in 10.0 mi South 16.1 mph 19.6 mph N/A   Clear
12:35 AM 59.0 °F 35.6 °F 42% 29.92 in 10.0 mi South 13.8 mph - N/A   Clear
12:55 AM 59.0 °F 37.4 °F 45% 29.91 in 10.0 mi South 13.8 mph - N/A   Clear
1:15 AM 59.0 °F 37.4 °F 45% 29.91 in 10.0 mi South 15.0 mph - N/A   Clear
1:35 AM 59.0 °F 37.4 °F 45% 29.90 in 10.0 mi South 18.4 mph - N/A   Clear
1:55 AM 59.0 °F 37.4 °F 45% 29.90 in 10.0 mi South 17.3 mph 20.7 mph N/A   Clear
2:15 AM 59.0 °F 37.4 °F 45% 29.90 in 10.0 mi South 15.0 mph - N/A   Clear
2:35 AM 57.2 °F 37.4 °F 48% 29.89 in 10.0 mi South 13.8 mph - N/A   Clear
2:55 AM 57.2 °F 37.4 °F 48% 29.89 in 10.0 mi South 12.7 mph - N/A   Clear
3:15 AM 59.0 °F 37.4 °F 45% 29.88 in 10.0 mi South 13.8 mph - N/A   Clear
3:35 AM 59.0 °F 37.4 °F 45% 29.88 in 10.0 mi South 12.7 mph - N/A   Clear
3:55 AM 57.2 °F 37.4 °F 48% 29.88 in 10.0 mi SSW 13.8 mph - N/A   Clear
4:15 AM 59.0 °F 37.4 °F 45% 29.87 in 10.0 mi SSW 15.0 mph 20.7 mph N/A   Clear
4:35 AM 59.0 °F 39.2 °F 48% 29.86 in 10.0 mi South 17.3 mph 21.9 mph N/A   Clear
4:55 AM 59.0 °F 39.2 °F 48% 29.86 in 10.0 mi South 18.4 mph 23.0 mph N/A   Clear
5:15 AM 59.0 °F 41.0 °F 51% 29.86 in 10.0 mi SSW 17.3 mph 25.3 mph N/A   Clear
5:35 AM 59.0 °F 41.0 °F 51% 29.86 in 10.0 mi SSW 18.4 mph 23.0 mph N/A   Clear
5:55 AM 59.0 °F 41.0 °F 51% 29.86 in 10.0 mi South 17.3 mph 26.5 mph N/A   Clear
6:15 AM 59.0 °F 41.0 °F 51% 29.85 in 10.0 mi South 16.1 mph 23.0 mph N/A   Clear
6:35 AM 59.0 °F 41.0 °F 51% 29.84 in 10.0 mi South 19.6 mph 25.3 mph N/A   Clear
6:55 AM 59.0 °F 41.0 °F 51% 29.84 in 10.0 mi SSW 18.4 mph 25.3 mph N/A   Clear
7:15 AM 60.8 °F 41.0 °F 48% 29.84 in 10.0 mi SSW 19.6 mph 26.5 mph N/A   Clear
7:35 AM 60.8 °F 41.0 °F 48% 29.84 in 10.0 mi South 18.4 mph - N/A   Clear
7:55 AM 60.8 °F 42.8 °F 52% 29.85 in 10.0 mi South 21.9 mph 25.3 mph N/A   Clear
8:15 AM 62.6 °F 42.8 °F 48% 29.85 in 10.0 mi SSW 21.9 mph 28.8 mph N/A   Clear
8:35 AM 64.4 °F 42.8 °F 45% 29.84 in 10.0 mi South 20.7 mph - N/A   Clear
8:55 AM 66.2 °F 44.6 °F 46% 29.84 in 10.0 mi SSW 24.2 mph 33.4 mph N/A   Clear
9:15 AM 68.0 °F 44.6 °F 43% 29.84 in 10.0 mi SSW 19.6 mph 28.8 mph N/A   Clear
9:35 AM 69.8 °F 44.6 °F 40% 29.85 in 10.0 mi SSW 24.2 mph 32.2 mph N/A   Clear
9:55 AM 71.6 °F 44.6 °F 38% 29.85 in 10.0 mi SW 26.5 mph 31.1 mph N/A   Clear
10:15 AM 71.6 °F 44.6 °F 38% 29.84 in 10.0 mi SSW 27.6 mph 33.4 mph N/A   Clear
10:35 AM 71.6 °F 46.4 °F 41% 29.87 in 10.0 mi SSW 20.7 mph 33.4 mph N/A   Clear
10:55 AM 73.4 °F 44.6 °F 36% 29.87 in 10.0 mi SW 23.0 mph 29.9 mph N/A   Clear
11:15 AM 73.4 °F 44.6 °F 36% 29.87 in 10.0 mi SW 24.2 mph 33.4 mph N/A   Clear
11:35 AM 73.4 °F 44.6 °F 36% 29.86 in 10.0 mi SSW 21.9 mph 27.6 mph N/A   Clear
11:55 AM 75.2 °F 46.4 °F 36% 29.85 in 10.0 mi SSW 20.7 mph 26.5 mph N/A   Clear
12:15 PM 75.2 °F 46.4 °F 36% 29.84 in 10.0 mi SSW 24.2 mph 32.2 mph N/A   Clear
12:35 PM 77.0 °F 46.4 °F 34% 29.83 in 10.0 mi SW 25.3 mph 28.8 mph N/A   Clear
12:55 PM 77.0 °F 46.4 °F 34% 29.82 in 10.0 mi SW 23.0 mph 29.9 mph N/A   Clear
1:15 PM 77.0 °F 46.4 °F 34% 29.82 in 10.0 mi SW 24.2 mph 33.4 mph N/A   Clear
1:55 PM 78.8 °F 46.4 °F 32% 29.82 in 10.0 mi SW 18.4 mph - N/A   Clear
2:15 PM 77.0 °F 48.2 °F 36% 29.81 in 10.0 mi SSW 18.4 mph 25.3 mph N/A   Clear
3:15 PM 78.8 °F 46.4 °F 32% 29.82 in 10.0 mi SW 18.4 mph 27.6 mph N/A   Clear
3:35 PM 78.8 °F 48.2 °F 34% 29.82 in 10.0 mi SW 17.3 mph 23.0 mph N/A   Clear
3:55 PM 78.8 °F 48.2 °F 34% 29.82 in 10.0 mi SW 13.8 mph 23.0 mph N/A   Clear
4:15 PM 80.6 °F 48.2 °F 32% 29.82 in 10.0 mi West 16.1 mph 20.7 mph N/A   Scattered Clouds
4:35 PM 78.8 °F 50.0 °F 36% 29.83 in 10.0 mi West 11.5 mph - N/A   Scattered Clouds
4:55 PM 78.8 °F 50.0 °F 36% 29.83 in 10.0 mi West 13.8 mph 17.3 mph N/A   Clear
5:15 PM 77.0 °F 50.0 °F 39% 29.84 in 10.0 mi West 11.5 mph - N/A   Clear
5:35 PM 77.0 °F 50.0 °F 39% 29.84 in 10.0 mi West 12.7 mph - N/A   Clear
5:55 PM 77.0 °F 50.0 °F 39% 29.84 in 10.0 mi WSW 10.4 mph - N/A   Clear
6:15 PM 75.2 °F 51.8 °F 44% 29.84 in 10.0 mi West 8.1 mph - N/A   Scattered Clouds
6:35 PM 75.2 °F 50.0 °F 41% 29.84 in 10.0 mi Calm Calm - N/A   Scattered Clouds
6:55 PM 73.4 °F 50.0 °F 44% 29.84 in 10.0 mi Calm Calm - N/A   Scattered Clouds
7:15 PM 71.6 °F 53.6 °F 53% 29.85 in 10.0 mi Calm Calm - N/A   Mostly Cloudy
7:35 PM 71.6 °F 51.8 °F 50% 29.86 in 10.0 mi Calm Calm - N/A   Scattered Clouds
7:55 PM 71.6 °F 50.0 °F 46% 29.86 in 7.0 mi Calm Calm - N/A   Mostly Cloudy
8:15 PM 71.6 °F 50.0 °F 46% 29.87 in 10.0 mi Calm Calm - N/A   Overcast
8:35 PM 69.8 °F 50.0 °F 49% 29.88 in 10.0 mi NNE 3.5 mph - N/A   Overcast
8:55 PM 64.4 °F 51.8 °F 64% 29.90 in 7.0 mi North 8.1 mph - N/A   Overcast
9:15 PM 66.2 °F 51.8 °F 60% 29.91 in 10.0 mi NNE 5.8 mph - N/A   Overcast
9:35 PM 64.4 °F 51.8 °F 64% 29.92 in 10.0 mi NE 5.8 mph - N/A   Mostly Cloudy
9:55 PM 64.4 °F 50.0 °F 59% 29.94 in 10.0 mi North 10.4 mph - N/A   Scattered Clouds
10:15 PM 62.6 °F 50.0 °F 63% 29.95 in 10.0 mi North 8.1 mph - N/A   Clear
10:35 PM 60.8 °F 50.0 °F 68% 29.96 in 10.0 mi North 6.9 mph - N/A   Clear
10:55 PM 59.0 °F 50.0 °F 72% 29.96 in 10.0 mi North 5.8 mph - N/A   Mostly Cloudy
11:15 PM 59.0 °F 48.2 °F 67% 29.96 in 10.0 mi North 3.5 mph - N/A   Scattered Clouds
11:35 PM 57.2 °F 46.4 °F 67% 29.97 in 10.0 mi NNW 4.6 mph - N/A   Scattered Clouds
11:55 PM 55.4 °F 46.4 °F 72% 29.97 in 10.0 mi North 3.5 mph - N/A   Clear